Terminal Aerodrome Forecast
Issued by NWS

Home | Current Version | Previous Version | Text Only | Print | Product List | Glossary On
Versions: 1 2 3 4 5 6 7 8 9 10 11 12 13 14 15 16
000
FTUS46 KSEW 030204 AAA
TAFBFI
TAF AMD
KBFI 030204Z 0302/0324 31005KT P6SM SCT045 SCT080
      TEMPO 0302/0305 24008G18KT P6SM -SHRA BKN040 BKN060
     FM030500 VRB06KT P6SM -SHRA SCT015 BKN035 BKN050
     FM030800 17008KT P6SM BKN030 OVC040
     FM031800 18008KT P6SM BKN040 OVC080=

USA.gov is the U.S. government's official web portal to all federal, state and local government web resources and services.